sensor_id;sensor_type;location;lat;lon;timestamp;P1;durP1;ratioP1;P2;durP2;ratioP2
82374;SDS011;72005;50.496;15.798;2023-08-31T00:00:48;83.88;;;5.38;;
82374;SDS011;72005;50.496;15.798;2023-08-31T00:03:29;46.70;;;4.78;;
82374;SDS011;72005;50.496;15.798;2023-08-31T00:05:55;20.40;;;3.67;;
82374;SDS011;72005;50.496;15.798;2023-08-31T00:08:22;25.25;;;4.20;;
82374;SDS011;72005;50.496;15.798;2023-08-31T00:10:54;32.33;;;5.10;;
82374;SDS011;72005;50.496;15.798;2023-08-31T00:13:23;40.38;;;4.20;;
82374;SDS011;72005;50.496;15.798;2023-08-31T00:15:49;36.72;;;3.58;;
82374;SDS011;72005;50.496;15.798;2023-08-31T00:18:15;18.15;;;3.20;;
82374;SDS011;72005;50.496;15.798;2023-08-31T00:20:42;81.80;;;5.38;;
82374;SDS011;72005;50.496;15.798;2023-08-31T00:23:08;80.82;;;4.70;;
82374;SDS011;72005;50.496;15.798;2023-08-31T00:25:34;43.95;;;3.90;;
82374;SDS011;72005;50.496;15.798;2023-08-31T00:27:59;53.28;;;4.15;;
82374;SDS011;72005;50.496;15.798;2023-08-31T00:30:30;51.33;;;4.43;;
82374;SDS011;72005;50.496;15.798;2023-08-31T00:32:57;73.97;;;5.97;;
82374;SDS011;72005;50.496;15.798;2023-08-31T00:35:25;75.95;;;5.38;;
82374;SDS011;72005;50.496;15.798;2023-08-31T00:37:52;83.55;;;4.57;;
82374;SDS011;72005;50.496;15.798;2023-08-31T00:40:23;50.42;;;4.30;;
82374;SDS011;72005;50.496;15.798;2023-08-31T00:42:48;79.38;;;4.07;;
82374;SDS011;72005;50.496;15.798;2023-08-31T00:45:14;52.40;;;4.60;;
82374;SDS011;72005;50.496;15.798;2023-08-31T00:47:40;80.60;;;5.25;;
82374;SDS011;72005;50.496;15.798;2023-08-31T00:50:07;53.47;;;4.80;;
82374;SDS011;72005;50.496;15.798;2023-08-31T00:52:33;85.18;;;5.65;;
82374;SDS011;72005;50.496;15.798;2023-08-31T00:54:59;111.97;;;5.05;;
82374;SDS011;72005;50.496;15.798;2023-08-31T00:57:30;98.15;;;6.82;;
82374;SDS011;72005;50.496;15.798;2023-08-31T00:59:56;70.50;;;4.65;;
82374;SDS011;72005;50.496;15.798;2023-08-31T01:02:34;77.72;;;4.25;;
82374;SDS011;72005;50.496;15.798;2023-08-31T01:07:39;118.05;;;6.80;;
82374;SDS011;72005;50.496;15.798;2023-08-31T01:13:19;64.43;;;3.90;;
82374;SDS011;72005;50.496;15.798;2023-08-31T01:15:51;109.10;;;8.38;;
82374;SDS011;72005;50.496;15.798;2023-08-31T01:18:21;107.35;;;6.57;;
82374;SDS011;72005;50.496;15.798;2023-08-31T01:23:49;93.50;;;6.40;;
82374;SDS011;72005;50.496;15.798;2023-08-31T01:26:17;103.50;;;6.30;;
82374;SDS011;72005;50.496;15.798;2023-08-31T01:28:42;85.30;;;5.50;;
82374;SDS011;72005;50.496;15.798;2023-08-31T01:31:09;73.03;;;5.85;;
82374;SDS011;72005;50.496;15.798;2023-08-31T01:33:34;81.63;;;6.78;;
82374;SDS011;72005;50.496;15.798;2023-08-31T01:36:00;71.97;;;6.05;;
82374;SDS011;72005;50.496;15.798;2023-08-31T01:38:33;116.73;;;7.50;;
82374;SDS011;72005;50.496;15.798;2023-08-31T01:41:05;95.38;;;7.90;;
82374;SDS011;72005;50.496;15.798;2023-08-31T01:43:33;106.72;;;10.07;;
82374;SDS011;72005;50.496;15.798;2023-08-31T01:46:00;93.97;;;8.43;;
82374;SDS011;72005;50.496;15.798;2023-08-31T01:48:26;130.70;;;9.35;;
82374;SDS011;72005;50.496;15.798;2023-08-31T01:50:53;14.90;;;7.00;;
82374;SDS011;72005;50.496;15.798;2023-08-31T01:53:18;121.07;;;8.48;;
82374;SDS011;72005;50.496;15.798;2023-08-31T01:55:44;43.92;;;6.63;;
82374;SDS011;72005;50.496;15.798;2023-08-31T01:58:10;173.70;;;11.50;;
82374;SDS011;72005;50.496;15.798;2023-08-31T02:00:35;125.20;;;10.13;;
82374;SDS011;72005;50.496;15.798;2023-08-31T02:03:03;105.50;;;8.82;;
82374;SDS011;72005;50.496;15.798;2023-08-31T02:05:29;20.30;;;7.00;;
82374;SDS011;72005;50.496;15.798;2023-08-31T02:07:55;86.10;;;7.72;;
82374;SDS011;72005;50.496;15.798;2023-08-31T02:10:21;76.38;;;9.35;;
82374;SDS011;72005;50.496;15.798;2023-08-31T02:12:46;15.70;;;7.15;;
82374;SDS011;72005;50.496;15.798;2023-08-31T02:15:12;46.50;;;8.38;;
82374;SDS011;72005;50.496;15.798;2023-08-31T02:17:38;27.85;;;8.57;;
82374;SDS011;72005;50.496;15.798;2023-08-31T02:20:04;22.75;;;7.80;;
82374;SDS011;72005;50.496;15.798;2023-08-31T02:22:33;59.10;;;8.95;;
82374;SDS011;72005;50.496;15.798;2023-08-31T02:24:59;41.78;;;10.70;;
82374;SDS011;72005;50.496;15.798;2023-08-31T02:27:26;15.30;;;8.10;;
82374;SDS011;72005;50.496;15.798;2023-08-31T02:29:52;63.05;;;9.27;;
82374;SDS011;72005;50.496;15.798;2023-08-31T02:32:19;29.40;;;9.18;;
82374;SDS011;72005;50.496;15.798;2023-08-31T02:34:45;51.55;;;9.77;;
82374;SDS011;72005;50.496;15.798;2023-08-31T02:37:10;15.52;;;8.27;;
82374;SDS011;72005;50.496;15.798;2023-08-31T02:39:36;29.13;;;9.77;;
82374;SDS011;72005;50.496;15.798;2023-08-31T02:42:02;13.50;;;8.60;;
82374;SDS011;72005;50.496;15.798;2023-08-31T02:44:28;44.55;;;9.30;;
82374;SDS011;72005;50.496;15.798;2023-08-31T02:46:53;99.40;;;11.32;;
82374;SDS011;72005;50.496;15.798;2023-08-31T02:49:19;120.32;;;12.65;;
82374;SDS011;72005;50.496;15.798;2023-08-31T02:51:45;106.40;;;10.25;;
82374;SDS011;72005;50.496;15.798;2023-08-31T02:54:11;121.05;;;10.35;;
82374;SDS011;72005;50.496;15.798;2023-08-31T02:56:36;110.00;;;10.75;;
82374;SDS011;72005;50.496;15.798;2023-08-31T02:59:02;96.93;;;9.88;;
82374;SDS011;72005;50.496;15.798;2023-08-31T03:01:28;123.60;;;12.18;;
82374;SDS011;72005;50.496;15.798;2023-08-31T03:03:54;125.63;;;12.63;;
82374;SDS011;72005;50.496;15.798;2023-08-31T03:06:19;193.98;;;11.75;;
82374;SDS011;72005;50.496;15.798;2023-08-31T03:08:45;144.63;;;12.80;;
82374;SDS011;72005;50.496;15.798;2023-08-31T03:11:11;83.90;;;9.32;;
82374;SDS011;72005;50.496;15.798;2023-08-31T03:13:39;59.78;;;8.60;;
82374;SDS011;72005;50.496;15.798;2023-08-31T03:16:05;39.33;;;9.02;;
82374;SDS011;72005;50.496;15.798;2023-08-31T03:18:31;50.38;;;8.70;;
82374;SDS011;72005;50.496;15.798;2023-08-31T03:20:56;73.30;;;10.35;;
82374;SDS011;72005;50.496;15.798;2023-08-31T03:23:22;71.60;;;9.65;;
82374;SDS011;72005;50.496;15.798;2023-08-31T03:25:48;150.40;;;10.95;;
82374;SDS011;72005;50.496;15.798;2023-08-31T03:28:14;156.75;;;10.57;;
82374;SDS011;72005;50.496;15.798;2023-08-31T03:30:39;60.40;;;7.90;;
82374;SDS011;72005;50.496;15.798;2023-08-31T03:33:05;46.33;;;7.35;;
82374;SDS011;72005;50.496;15.798;2023-08-31T03:38:05;73.80;;;8.27;;
82374;SDS011;72005;50.496;15.798;2023-08-31T03:40:30;81.00;;;8.27;;
82374;SDS011;72005;50.496;15.798;2023-08-31T03:42:56;29.92;;;7.65;;
82374;SDS011;72005;50.496;15.798;2023-08-31T03:45:22;40.83;;;7.40;;
82374;SDS011;72005;50.496;15.798;2023-08-31T03:47:48;264.35;;;13.93;;
82374;SDS011;72005;50.496;15.798;2023-08-31T03:50:14;40.83;;;7.57;;
82374;SDS011;72005;50.496;15.798;2023-08-31T03:52:39;11.00;;;6.72;;
82374;SDS011;72005;50.496;15.798;2023-08-31T03:55:05;85.47;;;8.02;;
82374;SDS011;72005;50.496;15.798;2023-08-31T03:57:31;118.20;;;9.15;;
82374;SDS011;72005;50.496;15.798;2023-08-31T03:59:57;80.63;;;8.65;;
82374;SDS011;72005;50.496;15.798;2023-08-31T04:02:23;88.57;;;10.18;;
82374;SDS011;72005;50.496;15.798;2023-08-31T04:04:48;82.72;;;8.27;;
82374;SDS011;72005;50.496;15.798;2023-08-31T04:07:14;35.55;;;7.68;;
82374;SDS011;72005;50.496;15.798;2023-08-31T04:09:40;41.33;;;7.72;;
82374;SDS011;72005;50.496;15.798;2023-08-31T04:12:06;11.38;;;7.05;;
82374;SDS011;72005;50.496;15.798;2023-08-31T04:14:32;43.85;;;8.80;;
82374;SDS011;72005;50.496;15.798;2023-08-31T04:16:57;18.20;;;8.13;;
82374;SDS011;72005;50.496;15.798;2023-08-31T04:19:23;10.20;;;7.55;;
82374;SDS011;72005;50.496;15.798;2023-08-31T04:21:55;19.90;;;7.68;;
82374;SDS011;72005;50.496;15.798;2023-08-31T04:24:21;11.15;;;7.43;;
82374;SDS011;72005;50.496;15.798;2023-08-31T04:26:47;12.52;;;6.82;;
82374;SDS011;72005;50.496;15.798;2023-08-31T04:29:15;18.67;;;6.97;;
82374;SDS011;72005;50.496;15.798;2023-08-31T04:31:40;10.75;;;6.75;;
82374;SDS011;72005;50.496;15.798;2023-08-31T04:34:06;12.63;;;6.95;;
82374;SDS011;72005;50.496;15.798;2023-08-31T04:36:33;18.40;;;7.13;;
82374;SDS011;72005;50.496;15.798;2023-08-31T04:38:59;9.15;;;6.40;;
82374;SDS011;72005;50.496;15.798;2023-08-31T04:41:25;9.35;;;6.65;;
82374;SDS011;72005;50.496;15.798;2023-08-31T04:43:50;10.02;;;7.38;;
82374;SDS011;72005;50.496;15.798;2023-08-31T04:46:16;8.25;;;6.75;;
82374;SDS011;72005;50.496;15.798;2023-08-31T04:48:42;7.75;;;6.45;;
82374;SDS011;72005;50.496;15.798;2023-08-31T04:51:09;24.40;;;8.38;;
82374;SDS011;72005;50.496;15.798;2023-08-31T04:53:59;11.90;;;7.10;;
82374;SDS011;72005;50.496;15.798;2023-08-31T04:56:29;32.90;;;7.57;;
82374;SDS011;72005;50.496;15.798;2023-08-31T04:58:59;18.67;;;7.40;;
82374;SDS011;72005;50.496;15.798;2023-08-31T05:01:26;94.40;;;9.35;;
82374;SDS011;72005;50.496;15.798;2023-08-31T05:03:52;44.45;;;7.07;;
82374;SDS011;72005;50.496;15.798;2023-08-31T05:06:18;77.32;;;7.40;;
82374;SDS011;72005;50.496;15.798;2023-08-31T05:08:44;91.55;;;9.10;;
82374;SDS011;72005;50.496;15.798;2023-08-31T05:11:09;50.78;;;6.78;;
82374;SDS011;72005;50.496;15.798;2023-08-31T05:13:35;80.13;;;7.35;;
82374;SDS011;72005;50.496;15.798;2023-08-31T05:16:01;61.88;;;7.18;;
82374;SDS011;72005;50.496;15.798;2023-08-31T05:18:28;116.78;;;8.07;;
82374;SDS011;72005;50.496;15.798;2023-08-31T05:20:53;73.45;;;6.03;;
82374;SDS011;72005;50.496;15.798;2023-08-31T05:23:19;21.23;;;6.75;;
82374;SDS011;72005;50.496;15.798;2023-08-31T05:25:45;10.48;;;5.85;;
82374;SDS011;72005;50.496;15.798;2023-08-31T05:28:11;119.57;;;8.63;;
82374;SDS011;72005;50.496;15.798;2023-08-31T05:30:45;74.70;;;6.70;;
82374;SDS011;72005;50.496;15.798;2023-08-31T05:33:13;109.10;;;8.02;;
82374;SDS011;72005;50.496;15.798;2023-08-31T05:35:39;76.55;;;7.63;;
82374;SDS011;72005;50.496;15.798;2023-08-31T05:38:05;136.07;;;10.63;;
82374;SDS011;72005;50.496;15.798;2023-08-31T05:40:30;32.40;;;7.47;;
82374;SDS011;72005;50.496;15.798;2023-08-31T05:42:56;118.60;;;10.45;;
82374;SDS011;72005;50.496;15.798;2023-08-31T05:45:22;10.38;;;6.00;;
82374;SDS011;72005;50.496;15.798;2023-08-31T05:47:48;28.10;;;6.68;;
82374;SDS011;72005;50.496;15.798;2023-08-31T05:50:14;13.68;;;5.82;;
82374;SDS011;72005;50.496;15.798;2023-08-31T05:52:40;8.57;;;6.13;;
82374;SDS011;72005;50.496;15.798;2023-08-31T05:55:09;6.35;;;5.57;;
82374;SDS011;72005;50.496;15.798;2023-08-31T05:57:35;6.38;;;5.38;;
82374;SDS011;72005;50.496;15.798;2023-08-31T06:00:03;7.05;;;5.50;;
82374;SDS011;72005;50.496;15.798;2023-08-31T06:02:32;6.13;;;4.82;;
82374;SDS011;72005;50.496;15.798;2023-08-31T06:04:58;5.13;;;4.63;;
82374;SDS011;72005;50.496;15.798;2023-08-31T06:07:23;5.43;;;4.93;;
82374;SDS011;72005;50.496;15.798;2023-08-31T06:09:49;4.78;;;4.22;;
82374;SDS011;72005;50.496;15.798;2023-08-31T06:12:15;6.07;;;4.80;;
82374;SDS011;72005;50.496;15.798;2023-08-31T06:14:41;5.03;;;4.55;;
82374;SDS011;72005;50.496;15.798;2023-08-31T06:17:07;5.20;;;4.70;;
82374;SDS011;72005;50.496;15.798;2023-08-31T06:19:34;6.03;;;4.28;;
82374;SDS011;72005;50.496;15.798;2023-08-31T06:21:59;4.85;;;4.22;;
82374;SDS011;72005;50.496;15.798;2023-08-31T06:24:25;4.32;;;3.97;;
82374;SDS011;72005;50.496;15.798;2023-08-31T06:26:51;5.80;;;5.20;;
82374;SDS011;72005;50.496;15.798;2023-08-31T06:29:17;13.05;;;4.22;;
82374;SDS011;72005;50.496;15.798;2023-08-31T06:31:43;6.47;;;4.50;;
82374;SDS011;72005;50.496;15.798;2023-08-31T06:34:09;4.63;;;4.22;;
82374;SDS011;72005;50.496;15.798;2023-08-31T06:36:34;4.10;;;3.80;;
82374;SDS011;72005;50.496;15.798;2023-08-31T06:39:00;4.25;;;3.85;;
82374;SDS011;72005;50.496;15.798;2023-08-31T06:41:26;4.25;;;3.85;;
82374;SDS011;72005;50.496;15.798;2023-08-31T06:43:52;4.60;;;4.20;;
82374;SDS011;72005;50.496;15.798;2023-08-31T06:46:18;4.40;;;4.00;;
82374;SDS011;72005;50.496;15.798;2023-08-31T06:48:44;4.47;;;3.83;;
82374;SDS011;72005;50.496;15.798;2023-08-31T06:51:09;4.53;;;4.13;;
82374;SDS011;72005;50.496;15.798;2023-08-31T06:53:35;4.28;;;3.88;;
82374;SDS011;72005;50.496;15.798;2023-08-31T06:56:02;4.68;;;4.22;;
82374;SDS011;72005;50.496;15.798;2023-08-31T06:58:29;4.63;;;4.20;;
82374;SDS011;72005;50.496;15.798;2023-08-31T07:00:55;4.18;;;3.80;;
82374;SDS011;72005;50.496;15.798;2023-08-31T07:03:22;3.80;;;3.50;;
82374;SDS011;72005;50.496;15.798;2023-08-31T07:05:47;4.65;;;3.47;;
82374;SDS011;72005;50.496;15.798;2023-08-31T07:08:13;4.55;;;3.90;;
82374;SDS011;72005;50.496;15.798;2023-08-31T07:10:39;3.88;;;3.47;;
82374;SDS011;72005;50.496;15.798;2023-08-31T07:13:05;3.97;;;3.58;;
82374;SDS011;72005;50.496;15.798;2023-08-31T07:15:30;3.97;;;3.60;;
82374;SDS011;72005;50.496;15.798;2023-08-31T07:17:57;3.60;;;3.30;;
82374;SDS011;72005;50.496;15.798;2023-08-31T07:20:22;3.58;;;3.28;;
82374;SDS011;72005;50.496;15.798;2023-08-31T07:22:49;4.40;;;3.53;;
82374;SDS011;72005;50.496;15.798;2023-08-31T07:25:14;4.25;;;3.85;;
82374;SDS011;72005;50.496;15.798;2023-08-31T07:27:40;6.53;;;4.10;;
82374;SDS011;72005;50.496;15.798;2023-08-31T07:30:06;3.95;;;3.58;;
82374;SDS011;72005;50.496;15.798;2023-08-31T07:32:33;4.68;;;3.72;;
82374;SDS011;72005;50.496;15.798;2023-08-31T07:34:58;3.67;;;3.38;;
82374;SDS011;72005;50.496;15.798;2023-08-31T07:37:24;3.42;;;3.13;;
82374;SDS011;72005;50.496;15.798;2023-08-31T07:39:50;3.53;;;3.22;;
82374;SDS011;72005;50.496;15.798;2023-08-31T07:42:16;5.55;;;3.80;;
82374;SDS011;72005;50.496;15.798;2023-08-31T07:44:42;3.70;;;3.40;;
82374;SDS011;72005;50.496;15.798;2023-08-31T07:47:09;3.42;;;3.13;;
82374;SDS011;72005;50.496;15.798;2023-08-31T07:49:35;3.63;;;3.10;;
82374;SDS011;72005;50.496;15.798;2023-08-31T07:52:01;3.00;;;2.80;;
82374;SDS011;72005;50.496;15.798;2023-08-31T07:54:28;3.10;;;2.90;;
82374;SDS011;72005;50.496;15.798;2023-08-31T07:56:54;3.13;;;2.90;;
82374;SDS011;72005;50.496;15.798;2023-08-31T07:59:19;3.45;;;3.15;;
82374;SDS011;72005;50.496;15.798;2023-08-31T08:01:46;3.50;;;3.20;;
82374;SDS011;72005;50.496;15.798;2023-08-31T08:04:12;3.15;;;2.85;;
82374;SDS011;72005;50.496;15.798;2023-08-31T08:06:38;3.10;;;2.90;;
82374;SDS011;72005;50.496;15.798;2023-08-31T08:09:04;2.95;;;2.75;;
82374;SDS011;72005;50.496;15.798;2023-08-31T08:11:30;3.80;;;3.40;;
82374;SDS011;72005;50.496;15.798;2023-08-31T08:13:56;3.60;;;3.30;;
82374;SDS011;72005;50.496;15.798;2023-08-31T08:16:22;3.85;;;3.55;;
82374;SDS011;72005;50.496;15.798;2023-08-31T08:18:48;3.63;;;3.33;;
82374;SDS011;72005;50.496;15.798;2023-08-31T08:21:15;3.70;;;3.40;;
82374;SDS011;72005;50.496;15.798;2023-08-31T08:23:40;3.60;;;3.30;;
82374;SDS011;72005;50.496;15.798;2023-08-31T08:26:06;3.40;;;3.10;;
82374;SDS011;72005;50.496;15.798;2023-08-31T08:28:32;3.47;;;3.17;;
82374;SDS011;72005;50.496;15.798;2023-08-31T08:31:00;3.63;;;3.33;;
82374;SDS011;72005;50.496;15.798;2023-08-31T08:33:29;3.85;;;3.55;;
82374;SDS011;72005;50.496;15.798;2023-08-31T08:35:56;3.55;;;3.25;;
82374;SDS011;72005;50.496;15.798;2023-08-31T08:38:22;4.00;;;3.70;;
82374;SDS011;72005;50.496;15.798;2023-08-31T08:40:48;6.00;;;4.00;;
82374;SDS011;72005;50.496;15.798;2023-08-31T08:43:13;4.00;;;3.70;;
82374;SDS011;72005;50.496;15.798;2023-08-31T08:45:39;4.20;;;3.85;;
82374;SDS011;72005;50.496;15.798;2023-08-31T08:48:07;4.22;;;3.83;;
82374;SDS011;72005;50.496;15.798;2023-08-31T08:50:34;4.60;;;4.20;;
82374;SDS011;72005;50.496;15.798;2023-08-31T08:53:04;6.90;;;4.50;;
82374;SDS011;72005;50.496;15.798;2023-08-31T08:55:32;5.30;;;4.80;;
82374;SDS011;72005;50.496;15.798;2023-08-31T08:57:58;5.68;;;4.68;;
82374;SDS011;72005;50.496;15.798;2023-08-31T09:00:25;5.75;;;5.25;;
82374;SDS011;72005;50.496;15.798;2023-08-31T09:02:53;5.43;;;5.00;;
82374;SDS011;72005;50.496;15.798;2023-08-31T09:05:19;5.25;;;4.82;;
82374;SDS011;72005;50.496;15.798;2023-08-31T09:08:03;5.55;;;5.05;;
82374;SDS011;72005;50.496;15.798;2023-08-31T09:10:36;6.60;;;5.18;;
82374;SDS011;72005;50.496;15.798;2023-08-31T09:13:06;6.47;;;5.28;;
82374;SDS011;72005;50.496;15.798;2023-08-31T09:15:38;6.28;;;5.22;;
82374;SDS011;72005;50.496;15.798;2023-08-31T09:18:27;5.90;;;5.40;;
82374;SDS011;72005;50.496;15.798;2023-08-31T09:20:55;5.70;;;5.20;;
82374;SDS011;72005;50.496;15.798;2023-08-31T09:23:23;3.92;;;3.63;;
82374;SDS011;72005;50.496;15.798;2023-08-31T09:25:52;4.70;;;4.28;;
82374;SDS011;72005;50.496;15.798;2023-08-31T09:28:19;5.70;;;4.25;;
82374;SDS011;72005;50.496;15.798;2023-08-31T09:30:47;4.32;;;3.28;;
82374;SDS011;72005;50.496;15.798;2023-08-31T09:33:14;3.50;;;3.20;;
82374;SDS011;72005;50.496;15.798;2023-08-31T09:38:17;6.47;;;3.53;;
82374;SDS011;72005;50.496;15.798;2023-08-31T09:40:44;3.47;;;3.17;;
82374;SDS011;72005;50.496;15.798;2023-08-31T09:43:10;5.85;;;3.50;;
82374;SDS011;72005;50.496;15.798;2023-08-31T09:45:36;3.10;;;2.80;;
82374;SDS011;72005;50.496;15.798;2023-08-31T09:48:03;3.13;;;2.92;;
82374;SDS011;72005;50.496;15.798;2023-08-31T09:50:30;3.55;;;2.90;;
82374;SDS011;72005;50.496;15.798;2023-08-31T09:53:00;3.20;;;2.90;;
82374;SDS011;72005;50.496;15.798;2023-08-31T09:55:29;3.22;;;2.75;;
82374;SDS011;72005;50.496;15.798;2023-08-31T09:57:57;2.88;;;2.67;;
82374;SDS011;72005;50.496;15.798;2023-08-31T10:00:25;3.20;;;3.00;;
82374;SDS011;72005;50.496;15.798;2023-08-31T10:02:52;4.20;;;2.90;;
82374;SDS011;72005;50.496;15.798;2023-08-31T10:05:20;3.13;;;2.92;;
82374;SDS011;72005;50.496;15.798;2023-08-31T10:07:47;3.20;;;3.00;;
82374;SDS011;72005;50.496;15.798;2023-08-31T10:10:14;3.47;;;3.20;;
82374;SDS011;72005;50.496;15.798;2023-08-31T10:12:40;3.55;;;2.95;;
82374;SDS011;72005;50.496;15.798;2023-08-31T10:15:08;4.82;;;3.30;;
82374;SDS011;72005;50.496;15.798;2023-08-31T10:17:36;3.45;;;3.15;;
82374;SDS011;72005;50.496;15.798;2023-08-31T10:20:02;3.50;;;3.20;;
82374;SDS011;72005;50.496;15.798;2023-08-31T10:22:29;3.50;;;3.15;;
82374;SDS011;72005;50.496;15.798;2023-08-31T10:24:56;3.25;;;2.97;;
82374;SDS011;72005;50.496;15.798;2023-08-31T10:27:35;3.42;;;3.10;;
82374;SDS011;72005;50.496;15.798;2023-08-31T10:30:15;3.30;;;3.00;;
82374;SDS011;72005;50.496;15.798;2023-08-31T10:32:46;3.00;;;2.70;;
82374;SDS011;72005;50.496;15.798;2023-08-31T10:35:38;2.65;;;2.45;;
82374;SDS011;72005;50.496;15.798;2023-08-31T10:41:19;3.00;;;2.70;;
82374;SDS011;72005;50.496;15.798;2023-08-31T10:43:45;2.63;;;2.42;;
82374;SDS011;72005;50.496;15.798;2023-08-31T10:46:24;2.58;;;2.20;;
82374;SDS011;72005;50.496;15.798;2023-08-31T10:51:23;1.50;;;1.40;;
82374;SDS011;72005;50.496;15.798;2023-08-31T10:53:49;2.15;;;1.65;;
82374;SDS011;72005;50.496;15.798;2023-08-31T10:56:17;1.60;;;1.50;;
82374;SDS011;72005;50.496;15.798;2023-08-31T10:58:54;1.20;;;1.10;;
82374;SDS011;72005;50.496;15.798;2023-08-31T11:04:29;1.30;;;1.30;;
82374;SDS011;72005;50.496;15.798;2023-08-31T11:09:38;2.13;;;1.70;;
82374;SDS011;72005;50.496;15.798;2023-08-31T11:12:03;1.98;;;1.50;;
82374;SDS011;72005;50.496;15.798;2023-08-31T11:14:30;1.80;;;1.70;;
82374;SDS011;72005;50.496;15.798;2023-08-31T11:16:56;2.25;;;1.38;;
82374;SDS011;72005;50.496;15.798;2023-08-31T11:19:22;1.65;;;1.55;;
82374;SDS011;72005;50.496;15.798;2023-08-31T11:21:48;2.15;;;1.77;;
82374;SDS011;72005;50.496;15.798;2023-08-31T11:24:14;1.73;;;1.50;;
82374;SDS011;72005;50.496;15.798;2023-08-31T11:26:41;2.60;;;1.90;;
82374;SDS011;72005;50.496;15.798;2023-08-31T11:29:07;3.55;;;1.75;;
82374;SDS011;72005;50.496;15.798;2023-08-31T11:31:37;1.85;;;1.75;;
82374;SDS011;72005;50.496;15.798;2023-08-31T11:34:13;1.80;;;1.70;;
82374;SDS011;72005;50.496;15.798;2023-08-31T11:36:43;7.82;;;1.90;;
82374;SDS011;72005;50.496;15.798;2023-08-31T11:39:11;6.05;;;1.80;;
82374;SDS011;72005;50.496;15.798;2023-08-31T11:41:38;2.20;;;2.00;;
82374;SDS011;72005;50.496;15.798;2023-08-31T11:44:07;1.95;;;1.70;;
82374;SDS011;72005;50.496;15.798;2023-08-31T11:46:36;1.95;;;1.60;;
82374;SDS011;72005;50.496;15.798;2023-08-31T11:49:04;2.50;;;1.80;;
82374;SDS011;72005;50.496;15.798;2023-08-31T11:51:30;2.00;;;1.80;;
82374;SDS011;72005;50.496;15.798;2023-08-31T11:53:57;1.65;;;1.55;;
82374;SDS011;72005;50.496;15.798;2023-08-31T11:56:25;1.80;;;1.70;;
82374;SDS011;72005;50.496;15.798;2023-08-31T11:58:51;1.70;;;1.60;;
82374;SDS011;72005;50.496;15.798;2023-08-31T12:01:18;1.70;;;1.60;;
82374;SDS011;72005;50.496;15.798;2023-08-31T12:03:46;1.80;;;1.70;;
82374;SDS011;72005;50.496;15.798;2023-08-31T12:06:16;2.40;;;1.70;;
82374;SDS011;72005;50.496;15.798;2023-08-31T12:08:43;2.88;;;1.50;;
82374;SDS011;72005;50.496;15.798;2023-08-31T12:11:09;1.90;;;1.30;;
82374;SDS011;72005;50.496;15.798;2023-08-31T12:13:35;1.65;;;1.45;;
82374;SDS011;72005;50.496;15.798;2023-08-31T12:16:02;3.58;;;1.60;;
82374;SDS011;72005;50.496;15.798;2023-08-31T12:18:32;1.65;;;1.50;;
82374;SDS011;72005;50.496;15.798;2023-08-31T12:21:02;1.90;;;1.60;;
82374;SDS011;72005;50.496;15.798;2023-08-31T12:23:29;3.15;;;2.00;;
82374;SDS011;72005;50.496;15.798;2023-08-31T12:25:55;2.50;;;1.70;;
82374;SDS011;72005;50.496;15.798;2023-08-31T12:28:22;5.68;;;1.80;;
82374;SDS011;72005;50.496;15.798;2023-08-31T12:30:49;2.92;;;1.90;;
82374;SDS011;72005;50.496;15.798;2023-08-31T12:33:17;2.63;;;2.15;;
82374;SDS011;72005;50.496;15.798;2023-08-31T12:35:44;5.05;;;1.88;;
82374;SDS011;72005;50.496;15.798;2023-08-31T12:38:11;2.50;;;2.20;;
82374;SDS011;72005;50.496;15.798;2023-08-31T12:40:37;2.30;;;1.75;;
82374;SDS011;72005;50.496;15.798;2023-08-31T12:43:04;2.15;;;1.80;;
82374;SDS011;72005;50.496;15.798;2023-08-31T12:45:35;2.03;;;1.77;;
82374;SDS011;72005;50.496;15.798;2023-08-31T12:48:01;2.47;;;2.00;;
82374;SDS011;72005;50.496;15.798;2023-08-31T12:50:29;3.72;;;2.10;;
82374;SDS011;72005;50.496;15.798;2023-08-31T12:52:55;2.20;;;1.95;;
82374;SDS011;72005;50.496;15.798;2023-08-31T12:55:21;3.05;;;1.92;;
82374;SDS011;72005;50.496;15.798;2023-08-31T12:57:46;1.90;;;1.67;;
82374;SDS011;72005;50.496;15.798;2023-08-31T13:00:13;2.20;;;2.00;;
82374;SDS011;72005;50.496;15.798;2023-08-31T13:02:40;1.80;;;1.70;;
82374;SDS011;72005;50.496;15.798;2023-08-31T13:05:07;4.55;;;1.95;;
82374;SDS011;72005;50.496;15.798;2023-08-31T13:07:38;2.35;;;1.73;;
82374;SDS011;72005;50.496;15.798;2023-08-31T13:10:04;1.83;;;1.73;;
82374;SDS011;72005;50.496;15.798;2023-08-31T13:12:31;3.22;;;1.70;;
82374;SDS011;72005;50.496;15.798;2023-08-31T13:15:00;1.70;;;1.60;;
82374;SDS011;72005;50.496;15.798;2023-08-31T13:17:27;4.70;;;1.77;;
82374;SDS011;72005;50.496;15.798;2023-08-31T13:19:53;3.13;;;1.70;;
82374;SDS011;72005;50.496;15.798;2023-08-31T13:22:20;1.70;;;1.60;;
82374;SDS011;72005;50.496;15.798;2023-08-31T13:24:47;3.13;;;1.67;;
82374;SDS011;72005;50.496;15.798;2023-08-31T13:27:13;3.05;;;1.50;;
82374;SDS011;72005;50.496;15.798;2023-08-31T13:29:39;2.15;;;1.50;;
82374;SDS011;72005;50.496;15.798;2023-08-31T13:32:05;2.05;;;1.38;;
82374;SDS011;72005;50.496;15.798;2023-08-31T13:34:31;1.58;;;1.48;;
82374;SDS011;72005;50.496;15.798;2023-08-31T13:36:57;1.60;;;1.50;;
82374;SDS011;72005;50.496;15.798;2023-08-31T13:39:22;3.13;;;1.73;;
82374;SDS011;72005;50.496;15.798;2023-08-31T13:41:51;1.48;;;1.38;;
82374;SDS011;72005;50.496;15.798;2023-08-31T13:44:18;2.83;;;1.35;;
82374;SDS011;72005;50.496;15.798;2023-08-31T13:46:45;2.80;;;1.50;;
82374;SDS011;72005;50.496;15.798;2023-08-31T13:49:11;2.55;;;1.45;;
82374;SDS011;72005;50.496;15.798;2023-08-31T13:51:37;2.10;;;1.50;;
82374;SDS011;72005;50.496;15.798;2023-08-31T13:54:04;1.42;;;1.33;;
82374;SDS011;72005;50.496;15.798;2023-08-31T13:56:30;2.10;;;1.35;;
82374;SDS011;72005;50.496;15.798;2023-08-31T13:58:56;2.25;;;1.40;;
82374;SDS011;72005;50.496;15.798;2023-08-31T14:01:21;2.53;;;1.48;;
82374;SDS011;72005;50.496;15.798;2023-08-31T14:03:47;2.25;;;1.50;;
82374;SDS011;72005;50.496;15.798;2023-08-31T14:06:13;2.95;;;1.40;;
82374;SDS011;72005;50.496;15.798;2023-08-31T14:08:40;5.20;;;1.60;;
82374;SDS011;72005;50.496;15.798;2023-08-31T14:11:06;2.97;;;1.30;;
82374;SDS011;72005;50.496;15.798;2023-08-31T14:13:32;1.80;;;1.70;;
82374;SDS011;72005;50.496;15.798;2023-08-31T14:15:58;3.72;;;1.40;;
82374;SDS011;72005;50.496;15.798;2023-08-31T14:18:26;3.33;;;1.60;;
82374;SDS011;72005;50.496;15.798;2023-08-31T14:20:54;2.22;;;1.50;;
82374;SDS011;72005;50.496;15.798;2023-08-31T14:23:20;1.85;;;1.40;;
82374;SDS011;72005;50.496;15.798;2023-08-31T14:25:46;2.60;;;1.55;;
82374;SDS011;72005;50.496;15.798;2023-08-31T14:28:12;2.40;;;1.52;;
82374;SDS011;72005;50.496;15.798;2023-08-31T14:30:37;1.88;;;1.30;;
82374;SDS011;72005;50.496;15.798;2023-08-31T14:33:03;1.48;;;1.27;;
82374;SDS011;72005;50.496;15.798;2023-08-31T14:35:30;4.38;;;1.50;;
82374;SDS011;72005;50.496;15.798;2023-08-31T14:37:56;1.48;;;1.38;;
82374;SDS011;72005;50.496;15.798;2023-08-31T14:40:23;1.52;;;1.42;;
82374;SDS011;72005;50.496;15.798;2023-08-31T14:42:49;2.10;;;1.50;;
82374;SDS011;72005;50.496;15.798;2023-08-31T14:45:15;1.50;;;1.38;;
82374;SDS011;72005;50.496;15.798;2023-08-31T14:47:41;2.20;;;1.40;;
82374;SDS011;72005;50.496;15.798;2023-08-31T14:50:07;1.38;;;1.27;;
82374;SDS011;72005;50.496;15.798;2023-08-31T14:52:33;1.77;;;1.40;;